sensor_id;sensor_type;location;lat;lon;timestamp;P1;durP1;ratioP1;P2;durP2;ratioP2
12912;SDS011;6524;51.368;11.984;2024-02-21T00:00:37;11.68;;;4.53;;
12912;SDS011;6524;51.368;11.984;2024-02-21T00:05:38;7.88;;;4.07;;
12912;SDS011;6524;51.368;11.984;2024-02-21T00:10:38;11.65;;;4.00;;
12912;SDS011;6524;51.368;11.984;2024-02-21T00:15:38;8.57;;;4.32;;
12912;SDS011;6524;51.368;11.984;2024-02-21T00:20:39;13.30;;;4.93;;
12912;SDS011;6524;51.368;11.984;2024-02-21T00:25:39;10.70;;;4.60;;
12912;SDS011;6524;51.368;11.984;2024-02-21T00:30:39;12.80;;;4.55;;
12912;SDS011;6524;51.368;11.984;2024-02-21T00:35:40;8.07;;;4.20;;
12912;SDS011;6524;51.368;11.984;2024-02-21T00:40:40;13.18;;;4.45;;
12912;SDS011;6524;51.368;11.984;2024-02-21T00:45:41;8.73;;;4.45;;
12912;SDS011;6524;51.368;11.984;2024-02-21T00:50:42;10.70;;;4.53;;
12912;SDS011;6524;51.368;11.984;2024-02-21T00:55:42;10.88;;;4.00;;
12912;SDS011;6524;51.368;11.984;2024-02-21T01:06:07;10.07;;;4.55;;
12912;SDS011;6524;51.368;11.984;2024-02-21T01:11:07;11.98;;;4.68;;
12912;SDS011;6524;51.368;11.984;2024-02-21T01:16:08;11.25;;;4.38;;
12912;SDS011;6524;51.368;11.984;2024-02-21T01:21:08;8.48;;;4.35;;
12912;SDS011;6524;51.368;11.984;2024-02-21T01:26:10;12.27;;;4.40;;
12912;SDS011;6524;51.368;11.984;2024-02-21T01:31:13;11.15;;;4.60;;
12912;SDS011;6524;51.368;11.984;2024-02-21T01:36:15;10.32;;;4.10;;
12912;SDS011;6524;51.368;11.984;2024-02-21T05:00:52;15.93;;;6.72;;
12912;SDS011;6524;51.368;11.984;2024-02-21T05:05:54;11.68;;;5.68;;
12912;SDS011;6524;51.368;11.984;2024-02-21T05:10:55;12.93;;;6.13;;
12912;SDS011;6524;51.368;11.984;2024-02-21T05:15:55;11.40;;;5.97;;
12912;SDS011;6524;51.368;11.984;2024-02-21T05:20:55;13.38;;;6.50;;
12912;SDS011;6524;51.368;11.984;2024-02-21T05:25:56;13.13;;;6.35;;
12912;SDS011;6524;51.368;11.984;2024-02-21T05:30:56;10.60;;;5.93;;
12912;SDS011;6524;51.368;11.984;2024-02-21T05:35:56;11.55;;;5.78;;
12912;SDS011;6524;51.368;11.984;2024-02-21T05:40:57;11.35;;;6.07;;
12912;SDS011;6524;51.368;11.984;2024-02-21T05:45:58;13.40;;;6.10;;
12912;SDS011;6524;51.368;11.984;2024-02-21T05:50:58;11.93;;;5.50;;
12912;SDS011;6524;51.368;11.984;2024-02-21T05:56:01;11.68;;;5.30;;
12912;SDS011;6524;51.368;11.984;2024-02-21T06:01:02;10.77;;;5.13;;
12912;SDS011;6524;51.368;11.984;2024-02-21T06:06:03;10.02;;;5.28;;
12912;SDS011;6524;51.368;11.984;2024-02-21T06:11:04;12.57;;;5.32;;
12912;SDS011;6524;51.368;11.984;2024-02-21T06:16:05;11.85;;;5.72;;
12912;SDS011;6524;51.368;11.984;2024-02-21T06:21:07;13.02;;;6.00;;
12912;SDS011;6524;51.368;11.984;2024-02-21T06:26:07;8.77;;;5.47;;
12912;SDS011;6524;51.368;11.984;2024-02-21T06:31:07;10.18;;;5.72;;
12912;SDS011;6524;51.368;11.984;2024-02-21T06:36:08;12.52;;;6.00;;
12912;SDS011;6524;51.368;11.984;2024-02-21T06:41:15;10.35;;;5.65;;
12912;SDS011;6524;51.368;11.984;2024-02-21T06:46:26;11.88;;;6.30;;
12912;SDS011;6524;51.368;11.984;2024-02-21T06:51:28;9.60;;;5.95;;
12912;SDS011;6524;51.368;11.984;2024-02-21T06:56:32;10.63;;;6.00;;
12912;SDS011;6524;51.368;11.984;2024-02-21T07:01:32;9.65;;;6.30;;
12912;SDS011;6524;51.368;11.984;2024-02-21T07:06:33;12.95;;;6.25;;
12912;SDS011;6524;51.368;11.984;2024-02-21T07:11:34;13.98;;;6.53;;
12912;SDS011;6524;51.368;11.984;2024-02-21T07:16:34;14.45;;;6.85;;
12912;SDS011;6524;51.368;11.984;2024-02-21T07:21:35;8.40;;;6.22;;
12912;SDS011;6524;51.368;11.984;2024-02-21T07:26:40;8.82;;;5.78;;
12912;SDS011;6524;51.368;11.984;2024-02-21T07:31:44;11.60;;;6.53;;
12912;SDS011;6524;51.368;11.984;2024-02-21T07:36:44;12.75;;;6.63;;
12912;SDS011;6524;51.368;11.984;2024-02-21T07:41:45;10.80;;;5.97;;
12912;SDS011;6524;51.368;11.984;2024-02-21T07:46:48;9.23;;;5.70;;
12912;SDS011;6524;51.368;11.984;2024-02-21T07:51:48;9.73;;;5.47;;
12912;SDS011;6524;51.368;11.984;2024-02-21T07:56:48;9.38;;;5.72;;
12912;SDS011;6524;51.368;11.984;2024-02-21T08:01:49;12.45;;;6.15;;
12912;SDS011;6524;51.368;11.984;2024-02-21T08:06:52;11.93;;;5.90;;
12912;SDS011;6524;51.368;11.984;2024-02-21T08:11:54;10.90;;;6.20;;
12912;SDS011;6524;51.368;11.984;2024-02-21T08:16:54;12.38;;;6.55;;
12912;SDS011;6524;51.368;11.984;2024-02-21T08:21:55;9.38;;;5.78;;
12912;SDS011;6524;51.368;11.984;2024-02-21T08:26:55;10.88;;;5.95;;
12912;SDS011;6524;51.368;11.984;2024-02-21T08:31:56;11.55;;;6.45;;
12912;SDS011;6524;51.368;11.984;2024-02-21T08:36:56;12.30;;;5.38;;
12912;SDS011;6524;51.368;11.984;2024-02-21T08:41:56;11.15;;;6.03;;
12912;SDS011;6524;51.368;11.984;2024-02-21T08:46:57;9.90;;;5.93;;
12912;SDS011;6524;51.368;11.984;2024-02-21T08:51:57;9.45;;;5.57;;
12912;SDS011;6524;51.368;11.984;2024-02-21T08:56:58;10.70;;;5.60;;
12912;SDS011;6524;51.368;11.984;2024-02-21T09:01:58;11.90;;;6.13;;
12912;SDS011;6524;51.368;11.984;2024-02-21T09:06:59;10.95;;;6.07;;
12912;SDS011;6524;51.368;11.984;2024-02-21T09:11:59;10.60;;;6.03;;
12912;SDS011;6524;51.368;11.984;2024-02-21T09:17:05;10.32;;;5.40;;
12912;SDS011;6524;51.368;11.984;2024-02-21T09:22:06;10.77;;;6.07;;
12912;SDS011;6524;51.368;11.984;2024-02-21T09:27:06;9.52;;;4.95;;
12912;SDS011;6524;51.368;11.984;2024-02-21T09:32:06;8.82;;;5.03;;
12912;SDS011;6524;51.368;11.984;2024-02-21T09:37:07;8.40;;;5.25;;
12912;SDS011;6524;51.368;11.984;2024-02-21T09:42:08;8.10;;;4.68;;
12912;SDS011;6524;51.368;11.984;2024-02-21T09:52:19;7.20;;;4.57;;
12912;SDS011;6524;51.368;11.984;2024-02-21T09:57:20;6.97;;;4.88;;
12912;SDS011;6524;51.368;11.984;2024-02-21T10:02:23;7.25;;;4.47;;
12912;SDS011;6524;51.368;11.984;2024-02-21T10:07:23;7.95;;;4.55;;
12912;SDS011;6524;51.368;11.984;2024-02-21T10:12:26;9.88;;;5.03;;
12912;SDS011;6524;51.368;11.984;2024-02-21T10:17:30;8.60;;;4.38;;
12912;SDS011;6524;51.368;11.984;2024-02-21T10:22:34;7.40;;;4.38;;
12912;SDS011;6524;51.368;11.984;2024-02-21T10:27:36;7.13;;;4.20;;
12912;SDS011;6524;51.368;11.984;2024-02-21T10:32:37;8.57;;;4.53;;
12912;SDS011;6524;51.368;11.984;2024-02-21T10:37:49;8.38;;;4.30;;
12912;SDS011;6524;51.368;11.984;2024-02-21T10:43:00;6.80;;;4.50;;
12912;SDS011;6524;51.368;11.984;2024-02-21T10:53:17;7.63;;;4.50;;
12912;SDS011;6524;51.368;11.984;2024-02-21T10:58:25;6.10;;;3.80;;
12912;SDS011;6524;51.368;11.984;2024-02-21T11:03:28;9.35;;;4.05;;
12912;SDS011;6524;51.368;11.984;2024-02-21T11:08:28;7.22;;;3.60;;
12912;SDS011;6524;51.368;11.984;2024-02-21T11:13:34;4.38;;;3.30;;
12912;SDS011;6524;51.368;11.984;2024-02-21T11:18:35;5.43;;;3.25;;
12912;SDS011;6524;51.368;11.984;2024-02-21T11:23:36;5.47;;;3.33;;
12912;SDS011;6524;51.368;11.984;2024-02-21T11:28:37;6.40;;;4.10;;
12912;SDS011;6524;51.368;11.984;2024-02-21T11:33:41;7.88;;;4.20;;
12912;SDS011;6524;51.368;11.984;2024-02-21T11:38:42;6.55;;;4.07;;
12912;SDS011;6524;51.368;11.984;2024-02-21T11:43:42;8.10;;;4.30;;
12912;SDS011;6524;51.368;11.984;2024-02-21T11:48:42;6.50;;;4.25;;
12912;SDS011;6524;51.368;11.984;2024-02-21T11:53:47;7.22;;;4.13;;
12912;SDS011;6524;51.368;11.984;2024-02-21T11:58:48;6.70;;;3.85;;
12912;SDS011;6524;51.368;11.984;2024-02-21T12:03:49;6.97;;;3.50;;
12912;SDS011;6524;51.368;11.984;2024-02-21T12:08:49;7.07;;;4.10;;
12912;SDS011;6524;51.368;11.984;2024-02-21T12:14:02;4.88;;;3.47;;
12912;SDS011;6524;51.368;11.984;2024-02-21T12:19:05;5.97;;;3.65;;
12912;SDS011;6524;51.368;11.984;2024-02-21T12:24:15;5.18;;;4.05;;
12912;SDS011;6524;51.368;11.984;2024-02-21T12:29:25;5.07;;;4.22;;
12912;SDS011;6524;51.368;11.984;2024-02-21T12:34:25;4.97;;;3.75;;
12912;SDS011;6524;51.368;11.984;2024-02-21T12:39:26;6.15;;;4.00;;
12912;SDS011;6524;51.368;11.984;2024-02-21T12:44:30;7.50;;;4.75;;
12912;SDS011;6524;51.368;11.984;2024-02-21T12:49:31;5.32;;;3.75;;
12912;SDS011;6524;51.368;11.984;2024-02-21T12:54:32;5.50;;;4.20;;
12912;SDS011;6524;51.368;11.984;2024-02-21T12:59:34;6.65;;;3.92;;
12912;SDS011;6524;51.368;11.984;2024-02-21T13:04:34;5.95;;;4.20;;
12912;SDS011;6524;51.368;11.984;2024-02-21T13:09:34;6.93;;;3.50;;
12912;SDS011;6524;51.368;11.984;2024-02-21T13:14:35;6.07;;;3.47;;
12912;SDS011;6524;51.368;11.984;2024-02-21T13:19:36;5.15;;;3.35;;
12912;SDS011;6524;51.368;11.984;2024-02-21T13:24:37;4.03;;;3.08;;
12912;SDS011;6524;51.368;11.984;2024-02-21T13:29:37;3.88;;;3.15;;
12912;SDS011;6524;51.368;11.984;2024-02-21T13:34:38;5.80;;;3.70;;
12912;SDS011;6524;51.368;11.984;2024-02-21T13:39:38;4.93;;;3.40;;
12912;SDS011;6524;51.368;11.984;2024-02-21T13:44:39;6.05;;;3.13;;
12912;SDS011;6524;51.368;11.984;2024-02-21T13:49:39;5.25;;;3.17;;
12912;SDS011;6524;51.368;11.984;2024-02-21T13:54:40;5.28;;;3.17;;
12912;SDS011;6524;51.368;11.984;2024-02-21T13:59:41;4.75;;;3.40;;
12912;SDS011;6524;51.368;11.984;2024-02-21T14:04:42;4.03;;;2.95;;
12912;SDS011;6524;51.368;11.984;2024-02-21T14:09:43;4.45;;;3.33;;
12912;SDS011;6524;51.368;11.984;2024-02-21T14:14:43;3.67;;;3.10;;
12912;SDS011;6524;51.368;11.984;2024-02-21T14:19:44;8.52;;;4.45;;
12912;SDS011;6524;51.368;11.984;2024-02-21T14:24:44;3.65;;;3.10;;
12912;SDS011;6524;51.368;11.984;2024-02-21T14:29:45;6.13;;;3.40;;
12912;SDS011;6524;51.368;11.984;2024-02-21T14:34:45;6.22;;;3.47;;
12912;SDS011;6524;51.368;11.984;2024-02-21T14:39:47;5.28;;;3.30;;
12912;SDS011;6524;51.368;11.984;2024-02-21T14:44:47;3.88;;;2.90;;
12912;SDS011;6524;51.368;11.984;2024-02-21T14:49:48;5.95;;;3.17;;
12912;SDS011;6524;51.368;11.984;2024-02-21T14:54:48;5.50;;;3.22;;
12912;SDS011;6524;51.368;11.984;2024-02-21T14:59:52;4.82;;;3.13;;
12912;SDS011;6524;51.368;11.984;2024-02-21T15:05:03;5.38;;;3.40;;
12912;SDS011;6524;51.368;11.984;2024-02-21T15:16:10;3.92;;;3.22;;
12912;SDS011;6524;51.368;11.984;2024-02-21T15:21:11;4.60;;;3.63;;
12912;SDS011;6524;51.368;11.984;2024-02-21T15:26:15;6.95;;;3.20;;
12912;SDS011;6524;51.368;11.984;2024-02-21T15:31:21;7.30;;;3.35;;
12912;SDS011;6524;51.368;11.984;2024-02-21T15:36:22;4.25;;;3.13;;
12912;SDS011;6524;51.368;11.984;2024-02-21T15:41:23;3.97;;;3.10;;
12912;SDS011;6524;51.368;11.984;2024-02-21T15:46:26;4.18;;;2.97;;
12912;SDS011;6524;51.368;11.984;2024-02-21T15:51:27;5.30;;;3.58;;
12912;SDS011;6524;51.368;11.984;2024-02-21T15:56:49;5.15;;;3.90;;
12912;SDS011;6524;51.368;11.984;2024-02-21T16:01:49;5.75;;;3.95;;
12912;SDS011;6524;51.368;11.984;2024-02-21T16:06:50;6.85;;;4.28;;
12912;SDS011;6524;51.368;11.984;2024-02-21T16:11:51;6.38;;;4.70;;
12912;SDS011;6524;51.368;11.984;2024-02-21T16:16:51;7.70;;;5.03;;
12912;SDS011;6524;51.368;11.984;2024-02-21T16:21:52;9.65;;;5.85;;
12912;SDS011;6524;51.368;11.984;2024-02-21T16:33:17;9.27;;;5.10;;
12912;SDS011;6524;51.368;11.984;2024-02-21T16:38:17;9.18;;;5.65;;
12912;SDS011;6524;51.368;11.984;2024-02-21T16:49:45;8.05;;;5.07;;
12912;SDS011;6524;51.368;11.984;2024-02-21T16:55:27;7.22;;;3.55;;
12912;SDS011;6524;51.368;11.984;2024-02-21T17:00:28;4.70;;;3.47;;
12912;SDS011;6524;51.368;11.984;2024-02-21T17:05:28;7.10;;;3.75;;
12912;SDS011;6524;51.368;11.984;2024-02-21T17:10:29;5.65;;;3.53;;
12912;SDS011;6524;51.368;11.984;2024-02-21T17:15:31;5.55;;;2.97;;
12912;SDS011;6524;51.368;11.984;2024-02-21T17:20:31;4.82;;;3.10;;
12912;SDS011;6524;51.368;11.984;2024-02-21T17:25:31;8.38;;;6.03;;
12912;SDS011;6524;51.368;11.984;2024-02-21T17:30:33;6.32;;;3.95;;
12912;SDS011;6524;51.368;11.984;2024-02-21T17:35:35;7.82;;;3.70;;
12912;SDS011;6524;51.368;11.984;2024-02-21T17:40:36;6.60;;;3.58;;
12912;SDS011;6524;51.368;11.984;2024-02-21T17:45:36;6.33;;;3.67;;
12912;SDS011;6524;51.368;11.984;2024-02-21T17:50:39;7.10;;;3.90;;
12912;SDS011;6524;51.368;11.984;2024-02-21T17:55:39;7.40;;;4.20;;
12912;SDS011;6524;51.368;11.984;2024-02-21T18:00:40;8.68;;;4.00;;
12912;SDS011;6524;51.368;11.984;2024-02-21T18:05:44;7.95;;;3.70;;
12912;SDS011;6524;51.368;11.984;2024-02-21T18:10:46;6.35;;;3.75;;
12912;SDS011;6524;51.368;11.984;2024-02-21T18:15:46;6.60;;;3.83;;
12912;SDS011;6524;51.368;11.984;2024-02-21T18:20:47;8.52;;;4.15;;
12912;SDS011;6524;51.368;11.984;2024-02-21T18:25:48;6.68;;;4.10;;
12912;SDS011;6524;51.368;11.984;2024-02-21T18:30:49;5.55;;;3.88;;
12912;SDS011;6524;51.368;11.984;2024-02-21T18:35:49;7.00;;;3.28;;
12912;SDS011;6524;51.368;11.984;2024-02-21T18:40:49;7.25;;;3.53;;
12912;SDS011;6524;51.368;11.984;2024-02-21T18:45:50;7.60;;;4.97;;
12912;SDS011;6524;51.368;11.984;2024-02-21T18:50:50;5.78;;;3.50;;
12912;SDS011;6524;51.368;11.984;2024-02-21T18:55:51;7.20;;;3.63;;
12912;SDS011;6524;51.368;11.984;2024-02-21T19:00:51;9.02;;;4.07;;
12912;SDS011;6524;51.368;11.984;2024-02-21T19:05:51;8.57;;;4.95;;
12912;SDS011;6524;51.368;11.984;2024-02-21T19:10:52;10.43;;;6.30;;
12912;SDS011;6524;51.368;11.984;2024-02-21T19:15:52;13.32;;;8.80;;
12912;SDS011;6524;51.368;11.984;2024-02-21T19:20:53;15.90;;;10.75;;
12912;SDS011;6524;51.368;11.984;2024-02-21T19:25:53;13.23;;;7.72;;
12912;SDS011;6524;51.368;11.984;2024-02-21T19:30:53;6.70;;;4.87;;
12912;SDS011;6524;51.368;11.984;2024-02-21T19:35:54;8.27;;;4.00;;
12912;SDS011;6524;51.368;11.984;2024-02-21T19:40:55;7.03;;;3.65;;
12912;SDS011;6524;51.368;11.984;2024-02-21T19:45:55;5.40;;;3.55;;
12912;SDS011;6524;51.368;11.984;2024-02-21T19:50:56;7.38;;;3.85;;
12912;SDS011;6524;51.368;11.984;2024-02-21T19:55:56;5.72;;;3.38;;
12912;SDS011;6524;51.368;11.984;2024-02-21T20:00:57;5.15;;;3.33;;
12912;SDS011;6524;51.368;11.984;2024-02-21T20:05:57;7.53;;;3.60;;
12912;SDS011;6524;51.368;11.984;2024-02-21T20:10:58;7.30;;;3.75;;
12912;SDS011;6524;51.368;11.984;2024-02-21T20:15:58;10.80;;;4.88;;
12912;SDS011;6524;51.368;11.984;2024-02-21T20:20:58;6.63;;;4.63;;
12912;SDS011;6524;51.368;11.984;2024-02-21T20:25:59;10.60;;;5.53;;
12912;SDS011;6524;51.368;11.984;2024-02-21T20:30:59;11.30;;;5.70;;
12912;SDS011;6524;51.368;11.984;2024-02-21T20:36:00;12.05;;;5.95;;
12912;SDS011;6524;51.368;11.984;2024-02-21T20:41:00;13.20;;;8.10;;
12912;SDS011;6524;51.368;11.984;2024-02-21T20:46:02;15.32;;;8.85;;
12912;SDS011;6524;51.368;11.984;2024-02-21T20:51:07;16.73;;;9.00;;
12912;SDS011;6524;51.368;11.984;2024-02-21T20:56:07;10.95;;;6.72;;
12912;SDS011;6524;51.368;11.984;2024-02-21T21:01:17;9.98;;;5.47;;
12912;SDS011;6524;51.368;11.984;2024-02-21T21:06:21;8.80;;;4.80;;
12912;SDS011;6524;51.368;11.984;2024-02-21T21:11:24;11.10;;;6.78;;
12912;SDS011;6524;51.368;11.984;2024-02-21T21:16:25;16.85;;;9.10;;
12912;SDS011;6524;51.368;11.984;2024-02-21T21:21:32;17.20;;;10.18;;
12912;SDS011;6524;51.368;11.984;2024-02-21T21:26:33;13.30;;;8.32;;
12912;SDS011;6524;51.368;11.984;2024-02-21T21:31:35;10.77;;;7.03;;
12912;SDS011;6524;51.368;11.984;2024-02-21T21:36:35;9.10;;;4.65;;
12912;SDS011;6524;51.368;11.984;2024-02-21T21:41:36;9.70;;;4.68;;
12912;SDS011;6524;51.368;11.984;2024-02-21T21:46:37;9.95;;;6.00;;
12912;SDS011;6524;51.368;11.984;2024-02-21T21:51:43;6.93;;;4.93;;
12912;SDS011;6524;51.368;11.984;2024-02-21T21:56:44;8.23;;;5.00;;
12912;SDS011;6524;51.368;11.984;2024-02-21T22:01:45;6.00;;;3.10;;
12912;SDS011;6524;51.368;11.984;2024-02-21T22:06:46;5.55;;;2.95;;
12912;SDS011;6524;51.368;11.984;2024-02-21T22:11:46;6.13;;;2.92;;
12912;SDS011;6524;51.368;11.984;2024-02-21T22:16:47;4.43;;;2.60;;
12912;SDS011;6524;51.368;11.984;2024-02-21T22:21:47;4.25;;;2.70;;
12912;SDS011;6524;51.368;11.984;2024-02-21T22:26:47;3.40;;;2.40;;
12912;SDS011;6524;51.368;11.984;2024-02-21T22:31:50;4.20;;;2.53;;
12912;SDS011;6524;51.368;11.984;2024-02-21T22:36:51;3.70;;;2.45;;
12912;SDS011;6524;51.368;11.984;2024-02-21T22:41:51;3.80;;;2.28;;
12912;SDS011;6524;51.368;11.984;2024-02-21T22:46:52;4.32;;;2.35;;
12912;SDS011;6524;51.368;11.984;2024-02-21T22:51:52;3.33;;;2.20;;
12912;SDS011;6524;51.368;11.984;2024-02-21T22:56:55;4.35;;;2.30;;
12912;SDS011;6524;51.368;11.984;2024-02-21T23:01:56;2.90;;;2.20;;
12912;SDS011;6524;51.368;11.984;2024-02-21T23:06:57;3.55;;;2.10;;
12912;SDS011;6524;51.368;11.984;2024-02-21T23:11:57;2.75;;;2.40;;
12912;SDS011;6524;51.368;11.984;2024-02-21T23:16:58;3.47;;;2.38;;
12912;SDS011;6524;51.368;11.984;2024-02-21T23:21:58;2.73;;;2.30;;
12912;SDS011;6524;51.368;11.984;2024-02-21T23:26:59;3.00;;;2.10;;
12912;SDS011;6524;51.368;11.984;2024-02-21T23:32:00;2.30;;;1.90;;
12912;SDS011;6524;51.368;11.984;2024-02-21T23:37:00;4.15;;;2.08;;
12912;SDS011;6524;51.368;11.984;2024-02-21T23:42:00;4.00;;;1.92;;
12912;SDS011;6524;51.368;11.984;2024-02-21T23:47:02;3.30;;;2.22;;
12912;SDS011;6524;51.368;11.984;2024-02-21T23:52:02;3.47;;;2.15;;
12912;SDS011;6524;51.368;11.984;2024-02-21T23:57:04;3.15;;;2.00;;
